createdAt,value
2022-08-28T00:00:50.000Z,0
2022-08-28T00:02:06.000Z,0
2022-08-28T00:03:22.000Z,0
2022-08-28T00:04:39.000Z,0
2022-08-28T00:05:55.000Z,0
2022-08-28T00:07:11.000Z,0
2022-08-28T00:08:27.000Z,0
2022-08-28T00:09:44.000Z,0
2022-08-28T00:11:00.000Z,0
2022-08-28T00:12:16.000Z,0
2022-08-28T00:13:33.000Z,0
2022-08-28T00:14:49.000Z,0
2022-08-28T00:16:05.000Z,0
2022-08-28T00:18:37.000Z,0
2022-08-28T00:19:53.000Z,0
2022-08-28T00:21:09.000Z,0
2022-08-28T00:22:26.000Z,0
2022-08-28T00:23:42.000Z,0
2022-08-28T00:24:58.000Z,0
2022-08-28T00:26:14.000Z,0
2022-08-28T00:28:47.000Z,0
2022-08-28T00:31:20.000Z,0
2022-08-28T00:32:35.000Z,0
2022-08-28T00:33:50.000Z,0
2022-08-28T00:35:06.000Z,0
2022-08-28T00:36:23.000Z,0
2022-08-28T00:37:39.000Z,0
2022-08-28T00:38:55.000Z,0
2022-08-28T00:40:12.000Z,0
2022-08-28T00:41:28.000Z,0
2022-08-28T00:42:44.000Z,0
2022-08-28T00:44:00.000Z,0
2022-08-28T00:45:17.000Z,0
2022-08-28T00:46:32.000Z,0
2022-08-28T00:47:47.000Z,0
2022-08-28T00:49:04.000Z,0
2022-08-28T00:50:20.000Z,0
2022-08-28T00:51:36.000Z,0
2022-08-28T00:52:53.000Z,0
2022-08-28T00:54:09.000Z,0
2022-08-28T00:56:41.000Z,0
2022-08-28T00:57:58.000Z,0
2022-08-28T00:59:14.000Z,0
2022-08-28T01:00:30.000Z,0
2022-08-28T01:01:47.000Z,0
2022-08-28T01:03:03.000Z,0
2022-08-28T01:04:18.000Z,0
2022-08-28T01:05:34.000Z,0
2022-08-28T01:06:51.000Z,0
2022-08-28T01:08:07.000Z,0
2022-08-28T01:09:23.000Z,0
2022-08-28T01:10:40.000Z,0
2022-08-28T01:11:56.000Z,0
2022-08-28T01:13:12.000Z,0
2022-08-28T01:14:28.000Z,0
2022-08-28T01:15:45.000Z,0
2022-08-28T01:17:01.000Z,0
2022-08-28T01:18:17.000Z,0
2022-08-28T01:19:34.000Z,0
2022-08-28T01:20:49.000Z,0
2022-08-28T01:23:21.000Z,0
2022-08-28T01:24:38.000Z,0
2022-08-28T01:25:54.000Z,0
2022-08-28T01:27:10.000Z,0
2022-08-28T01:28:27.000Z,0
2022-08-28T01:29:43.000Z,0
2022-08-28T01:30:59.000Z,0
2022-08-28T01:32:15.000Z,0
2022-08-28T01:33:32.000Z,0
2022-08-28T01:34:48.000Z,0
2022-08-28T01:36:04.000Z,0
2022-08-28T01:37:20.000Z,0
2022-08-28T01:38:36.000Z,0
2022-08-28T01:39:52.000Z,0
2022-08-28T01:41:09.000Z,0
2022-08-28T01:42:25.000Z,0
2022-08-28T01:43:41.000Z,0
2022-08-28T01:44:57.000Z,0
2022-08-28T01:47:29.000Z,0
2022-08-28T01:48:44.000Z,0
2022-08-28T01:50:01.000Z,0
2022-08-28T01:51:17.000Z,0
2022-08-28T01:52:33.000Z,0
2022-08-28T01:53:49.000Z,0
2022-08-28T01:55:06.000Z,0
2022-08-28T01:56:22.000Z,0
2022-08-28T01:57:38.000Z,0
2022-08-28T02:00:11.000Z,0
2022-08-28T02:01:27.000Z,0
2022-08-28T02:02:43.000Z,0
2022-08-28T02:04:00.000Z,0
2022-08-28T02:05:15.000Z,0
2022-08-28T02:06:31.000Z,0
2022-08-28T02:07:48.000Z,0
2022-08-28T02:09:04.000Z,0
2022-08-28T02:10:20.000Z,0
2022-08-28T02:11:36.000Z,0
2022-08-28T02:12:53.000Z,0
2022-08-28T02:14:09.000Z,0
2022-08-28T02:15:25.000Z,0
2022-08-28T02:16:42.000Z,0
2022-08-28T02:17:58.000Z,0
2022-08-28T02:19:14.000Z,0
2022-08-28T02:20:30.000Z,0
2022-08-28T02:21:46.000Z,0
2022-08-28T02:23:02.000Z,0
2022-08-28T02:24:18.000Z,0
2022-08-28T02:25:35.000Z,0
2022-08-28T02:26:51.000Z,0
2022-08-28T02:28:07.000Z,0
2022-08-28T02:29:23.000Z,0
2022-08-28T02:30:40.000Z,0
2022-08-28T02:31:56.000Z,0
2022-08-28T02:33:12.000Z,0
2022-08-28T02:34:29.000Z,0
2022-08-28T02:35:45.000Z,0
2022-08-28T02:37:01.000Z,0
2022-08-28T02:38:17.000Z,0
2022-08-28T02:39:33.000Z,0
2022-08-28T02:40:49.000Z,0
2022-08-28T02:42:05.000Z,0
2022-08-28T02:43:22.000Z,0
2022-08-28T02:44:38.000Z,0
2022-08-28T02:45:54.000Z,0
2022-08-28T02:47:11.000Z,0
2022-08-28T02:48:27.000Z,0
2022-08-28T02:50:59.000Z,0
2022-08-28T02:52:16.000Z,0
2022-08-28T02:53:32.000Z,0
2022-08-28T02:54:47.000Z,0
2022-08-28T02:56:04.000Z,0
2022-08-28T02:57:20.000Z,0
2022-08-28T02:58:36.000Z,0
2022-08-28T02:59:52.000Z,0
2022-08-28T03:01:09.000Z,0
2022-08-28T03:02:25.000Z,0
2022-08-28T03:03:41.000Z,0
2022-08-28T03:04:58.000Z,0
2022-08-28T03:06:14.000Z,0
2022-08-28T03:07:30.000Z,0
2022-08-28T03:08:46.000Z,0
2022-08-28T03:10:03.000Z,0
2022-08-28T03:11:18.000Z,0
2022-08-28T03:12:34.000Z,0
2022-08-28T03:13:51.000Z,0
2022-08-28T03:15:07.000Z,0
2022-08-28T03:16:23.000Z,0
2022-08-28T03:17:39.000Z,0
2022-08-28T03:18:56.000Z,0
2022-08-28T03:20:12.000Z,0
2022-08-28T03:21:28.000Z,0
2022-08-28T03:22:45.000Z,0
2022-08-28T03:24:01.000Z,0
2022-08-28T03:25:17.000Z,0
2022-08-28T03:26:33.000Z,0
2022-08-28T03:29:05.000Z,0
2022-08-28T03:30:21.000Z,0
2022-08-28T03:31:38.000Z,0
2022-08-28T03:32:54.000Z,0
2022-08-28T03:34:10.000Z,0
2022-08-28T03:35:26.000Z,0
2022-08-28T03:36:43.000Z,0
2022-08-28T03:37:59.000Z,0
2022-08-28T03:39:15.000Z,0
2022-08-28T03:43:04.000Z,0
2022-08-28T03:44:20.000Z,0
2022-08-28T03:45:35.000Z,0
2022-08-28T03:46:51.000Z,0
2022-08-28T03:49:24.000Z,0
2022-08-28T03:50:40.000Z,0
2022-08-28T03:51:56.000Z,0
2022-08-28T03:53:13.000Z,0
2022-08-28T03:54:29.000Z,0
2022-08-28T03:55:45.000Z,0
2022-08-28T03:57:01.000Z,0
2022-08-28T03:58:18.000Z,0
2022-08-28T03:59:34.000Z,0
2022-08-28T04:00:50.000Z,0
2022-08-28T04:02:06.000Z,0
2022-08-28T04:03:22.000Z,1
2022-08-28T04:04:38.000Z,0
2022-08-28T04:05:54.000Z,1
2022-08-28T04:07:11.000Z,1
2022-08-28T04:08:27.000Z,1
2022-08-28T04:09:43.000Z,2
2022-08-28T04:10:59.000Z,2
2022-08-28T04:12:15.000Z,1
2022-08-28T04:13:30.000Z,2
2022-08-28T04:14:46.000Z,1
2022-08-28T04:16:02.000Z,2
2022-08-28T04:17:19.000Z,9
2022-08-28T04:19:51.000Z,11
2022-08-28T04:22:23.000Z,15
2022-08-28T04:23:40.000Z,17
2022-08-28T04:24:56.000Z,24
2022-08-28T04:26:12.000Z,23
2022-08-28T04:27:28.000Z,30
2022-08-28T04:28:44.000Z,34
2022-08-28T04:29:59.000Z,40
2022-08-28T04:31:15.000Z,48
2022-08-28T04:32:31.000Z,55
2022-08-28T04:33:48.000Z,63
2022-08-28T04:35:04.000Z,74
2022-08-28T04:36:20.000Z,84
2022-08-28T04:37:36.000Z,94
2022-08-28T04:38:53.000Z,105
2022-08-28T04:40:09.000Z,116
2022-08-28T04:41:25.000Z,132
2022-08-28T04:42:40.000Z,142
2022-08-28T04:43:56.000Z,157
2022-08-28T04:46:28.000Z,185
2022-08-28T04:47:44.000Z,198
2022-08-28T04:49:00.000Z,213
2022-08-28T04:50:17.000Z,230
2022-08-28T04:51:33.000Z,245
2022-08-28T04:52:49.000Z,260
2022-08-28T04:54:05.000Z,275
2022-08-28T04:55:22.000Z,289
2022-08-28T04:57:54.000Z,334
2022-08-28T04:59:09.000Z,347
2022-08-28T05:00:25.000Z,351
2022-08-28T05:01:41.000Z,371
2022-08-28T05:02:57.000Z,386
2022-08-28T05:04:13.000Z,389
2022-08-28T05:05:30.000Z,403
2022-08-28T05:06:46.000Z,436
2022-08-28T05:08:02.000Z,454
2022-08-28T05:09:18.000Z,467
2022-08-28T05:10:34.000Z,490
2022-08-28T05:11:51.000Z,501
2022-08-28T05:13:06.000Z,483
2022-08-28T05:14:22.000Z,482
2022-08-28T05:15:38.000Z,506
2022-08-28T05:16:54.000Z,537
2022-08-28T05:18:10.000Z,565
2022-08-28T05:19:26.000Z,571
2022-08-28T05:20:42.000Z,557
2022-08-28T05:21:59.000Z,651
2022-08-28T05:23:15.000Z,718
2022-08-28T05:24:31.000Z,765
2022-08-28T05:25:47.000Z,795
2022-08-28T05:27:04.000Z,824
2022-08-28T05:28:20.000Z,850
2022-08-28T05:29:36.000Z,890
2022-08-28T05:30:52.000Z,917
2022-08-28T05:32:08.000Z,947
2022-08-28T05:33:24.000Z,973
2022-08-28T05:35:56.000Z,1015
2022-08-28T05:37:12.000Z,1041
2022-08-28T05:38:29.000Z,1072
2022-08-28T05:39:45.000Z,1099
2022-08-28T05:41:01.000Z,1122
2022-08-28T05:42:17.000Z,1149
2022-08-28T05:43:34.000Z,1171
2022-08-28T05:44:50.000Z,1206
2022-08-28T05:46:06.000Z,1232
2022-08-28T05:48:38.000Z,1274
2022-08-28T05:49:54.000Z,1298
2022-08-28T05:51:10.000Z,1318
2022-08-28T05:52:26.000Z,1327
2022-08-28T05:53:42.000Z,1351
2022-08-28T05:54:59.000Z,1381
2022-08-28T05:56:15.000Z,1395
2022-08-28T05:57:31.000Z,1444
2022-08-28T05:58:47.000Z,1475
2022-08-28T06:00:04.000Z,1493
2022-08-28T06:01:20.000Z,1550
2022-08-28T06:02:36.000Z,1574
2022-08-28T06:03:51.000Z,1581
2022-08-28T06:05:08.000Z,1598
2022-08-28T06:06:24.000Z,1615
2022-08-28T06:07:40.000Z,1639
2022-08-28T06:08:56.000Z,1682
2022-08-28T06:10:12.000Z,1684
2022-08-28T06:11:29.000Z,1697
2022-08-28T06:12:45.000Z,1728
2022-08-28T06:14:01.000Z,1766
2022-08-28T06:15:17.000Z,1769
2022-08-28T06:16:34.000Z,1768
2022-08-28T06:17:50.000Z,1788
2022-08-28T06:19:06.000Z,1817
2022-08-28T06:20:21.000Z,1819
2022-08-28T06:21:38.000Z,1824
2022-08-28T06:22:54.000Z,1837
2022-08-28T06:24:10.000Z,1895
2022-08-28T06:26:43.000Z,1947
2022-08-28T06:27:59.000Z,1983
2022-08-28T06:29:15.000Z,2025
2022-08-28T06:30:31.000Z,2049
2022-08-28T06:31:47.000Z,2139
2022-08-28T06:33:04.000Z,2163
2022-08-28T06:34:20.000Z,2188
2022-08-28T06:35:36.000Z,2184
2022-08-28T06:36:51.000Z,2263
2022-08-28T06:38:08.000Z,2163
2022-08-28T06:39:24.000Z,2204
2022-08-28T06:40:40.000Z,2377
2022-08-28T06:41:56.000Z,2366
2022-08-28T06:43:13.000Z,2772
2022-08-28T06:44:29.000Z,2371
2022-08-28T06:45:45.000Z,2196
2022-08-28T06:47:01.000Z,2330
2022-08-28T06:48:18.000Z,2377
2022-08-28T06:49:34.000Z,2417
2022-08-28T06:50:50.000Z,2489
2022-08-28T06:53:22.000Z,2753
2022-08-28T06:54:38.000Z,2742
2022-08-28T06:55:54.000Z,2715
2022-08-28T06:57:10.000Z,2627
2022-08-28T06:58:26.000Z,2422
2022-08-28T06:59:43.000Z,3113
2022-08-28T07:00:59.000Z,3606
2022-08-28T07:02:15.000Z,3552
2022-08-28T07:04:48.000Z,3157
2022-08-28T07:06:04.000Z,2911
2022-08-28T07:07:20.000Z,2790
2022-08-28T07:08:36.000Z,2829
2022-08-28T07:09:53.000Z,2836
2022-08-28T07:11:08.000Z,2835
2022-08-28T07:12:24.000Z,2857
2022-08-28T07:13:40.000Z,2846
2022-08-28T07:14:56.000Z,2847
2022-08-28T07:17:29.000Z,2959
2022-08-28T07:18:44.000Z,2922
2022-08-28T07:19:59.000Z,2907
2022-08-28T07:21:16.000Z,2973
2022-08-28T07:22:32.000Z,2982
2022-08-28T07:23:48.000Z,3086
2022-08-28T07:26:21.000Z,3100
2022-08-28T07:27:37.000Z,3141
2022-08-28T07:28:53.000Z,3139
2022-08-28T07:30:09.000Z,3180
2022-08-28T07:31:26.000Z,3203
2022-08-28T07:32:42.000Z,3320
2022-08-28T07:33:58.000Z,3409
2022-08-28T07:35:14.000Z,3436
2022-08-28T07:36:29.000Z,3584
2022-08-28T07:37:46.000Z,3631
2022-08-28T07:39:02.000Z,4056
2022-08-28T07:40:18.000Z,3422
2022-08-28T07:41:34.000Z,3518
2022-08-28T07:42:51.000Z,3808
2022-08-28T07:44:07.000Z,3989
2022-08-28T07:45:23.000Z,3926
2022-08-28T07:46:38.000Z,4330
2022-08-28T07:47:54.000Z,4075
2022-08-28T07:49:10.000Z,3897
2022-08-28T07:50:26.000Z,3537
2022-08-28T07:51:42.000Z,3825
2022-08-28T07:52:59.000Z,4194
2022-08-28T07:55:31.000Z,3942
2022-08-28T07:56:47.000Z,3591
2022-08-28T07:58:03.000Z,4824
2022-08-28T07:59:20.000Z,4612
2022-08-28T08:00:36.000Z,4039
2022-08-28T08:01:52.000Z,5466
2022-08-28T08:03:08.000Z,5167
2022-08-28T08:04:24.000Z,4490
2022-08-28T08:05:40.000Z,3472
2022-08-28T08:06:56.000Z,4491
2022-08-28T08:08:12.000Z,4498
2022-08-28T08:09:29.000Z,3718
2022-08-28T08:10:45.000Z,4227
2022-08-28T08:12:01.000Z,5448
2022-08-28T08:13:17.000Z,6653
2022-08-28T08:14:34.000Z,3315
2022-08-28T08:15:50.000Z,6553
2022-08-28T08:17:06.000Z,5006
2022-08-28T08:18:22.000Z,3303
2022-08-28T08:20:55.000Z,5850
2022-08-28T08:22:10.000Z,6629
2022-08-28T08:23:26.000Z,2567
2022-08-28T08:24:42.000Z,6562
2022-08-28T08:25:59.000Z,4887
2022-08-28T08:27:15.000Z,4596
2022-08-28T08:28:31.000Z,4711
2022-08-28T08:29:47.000Z,1984
2022-08-28T08:31:04.000Z,4629
2022-08-28T08:32:20.000Z,6610
2022-08-28T08:33:36.000Z,6282
2022-08-28T08:34:52.000Z,6522
2022-08-28T08:36:09.000Z,6598
2022-08-28T08:37:25.000Z,5921
2022-08-28T08:38:40.000Z,8009
2022-08-28T08:39:56.000Z,7471
2022-08-28T08:41:12.000Z,6773
2022-08-28T08:42:29.000Z,6437
2022-08-28T08:43:45.000Z,6340
2022-08-28T08:46:17.000Z,6890
2022-08-28T08:47:34.000Z,6317
2022-08-28T08:48:50.000Z,8756
2022-08-28T08:50:06.000Z,1903
2022-08-28T08:51:22.000Z,7371
2022-08-28T08:52:39.000Z,9263
2022-08-28T08:53:55.000Z,5914
2022-08-28T08:55:10.000Z,5352
2022-08-28T08:56:26.000Z,5580
2022-08-28T08:57:42.000Z,6491
2022-08-28T08:58:59.000Z,6175
2022-08-28T09:00:15.000Z,5034
2022-08-28T09:01:31.000Z,4799
2022-08-28T09:02:47.000Z,4541
2022-08-28T09:04:04.000Z,5510
2022-08-28T09:05:20.000Z,1775
2022-08-28T09:06:36.000Z,7961
2022-08-28T09:07:52.000Z,7578
2022-08-28T09:09:09.000Z,6956
2022-08-28T09:11:41.000Z,6254
2022-08-28T09:12:56.000Z,6710
2022-08-28T09:14:13.000Z,7265
2022-08-28T09:15:29.000Z,6481
2022-08-28T09:16:45.000Z,7658
2022-08-28T09:18:01.000Z,4694
2022-08-28T09:19:17.000Z,6889
2022-08-28T09:20:34.000Z,6917
2022-08-28T09:21:50.000Z,8791
2022-08-28T09:25:39.000Z,4490
2022-08-28T09:26:54.000Z,1871
2022-08-28T09:28:09.000Z,6700
2022-08-28T09:29:25.000Z,6932
2022-08-28T09:30:42.000Z,7281
2022-08-28T09:31:58.000Z,7064
2022-08-28T09:33:14.000Z,7126
2022-08-28T09:34:30.000Z,6849
2022-08-28T09:35:47.000Z,7015
2022-08-28T09:37:03.000Z,6961
2022-08-28T09:39:35.000Z,6541
2022-08-28T09:40:51.000Z,6944
2022-08-28T09:42:08.000Z,6651
2022-08-28T09:43:24.000Z,6635
2022-08-28T09:44:39.000Z,7040
2022-08-28T09:45:55.000Z,7014
2022-08-28T09:47:12.000Z,6987
2022-08-28T09:48:28.000Z,6979
2022-08-28T09:49:44.000Z,7149
2022-08-28T09:51:00.000Z,6759
2022-08-28T09:52:17.000Z,7186
2022-08-28T09:53:33.000Z,7486
2022-08-28T09:54:48.000Z,9450
2022-08-28T09:56:03.000Z,7567
2022-08-28T09:57:20.000Z,5354
2022-08-28T09:58:36.000Z,3434
2022-08-28T09:59:52.000Z,10046
2022-08-28T10:01:08.000Z,4368
2022-08-28T10:02:25.000Z,9218
2022-08-28T10:03:41.000Z,8434
2022-08-28T10:06:13.000Z,8785
2022-08-28T10:07:29.000Z,1788
2022-08-28T10:08:46.000Z,9679
2022-08-28T10:10:02.000Z,2615
2022-08-28T10:11:18.000Z,8947
2022-08-28T10:12:33.000Z,10202
2022-08-28T10:15:06.352Z,8460
2022-08-28T10:16:21.000Z,8513
2022-08-28T10:17:36.000Z,8181
2022-08-28T10:18:52.000Z,7477
2022-08-28T10:20:08.000Z,7201
2022-08-28T10:21:24.000Z,7129
2022-08-28T10:22:40.000Z,7039
2022-08-28T10:23:57.000Z,6894
2022-08-28T10:25:13.000Z,6884
2022-08-28T10:26:29.000Z,7009
2022-08-28T10:27:45.000Z,7394
2022-08-28T10:29:01.000Z,7430
2022-08-28T10:30:17.000Z,7659
2022-08-28T10:31:32.000Z,7771
2022-08-28T10:32:48.000Z,6835
2022-08-28T10:34:04.000Z,7117
2022-08-28T10:35:21.000Z,7240
2022-08-28T10:36:37.000Z,7248
2022-08-28T10:37:53.000Z,10678
2022-08-28T10:40:26.000Z,9826
2022-08-28T10:41:42.000Z,9219
2022-08-28T10:42:58.000Z,8825
2022-08-28T10:44:14.000Z,7918
2022-08-28T10:45:31.000Z,8696
2022-08-28T10:46:47.000Z,4901
2022-08-28T10:48:02.000Z,4987
2022-08-28T10:49:18.000Z,7646
2022-08-28T10:50:35.000Z,2060
2022-08-28T10:51:51.000Z,8630
2022-08-28T10:53:07.000Z,9187
2022-08-28T10:54:23.000Z,8953
2022-08-28T10:55:39.000Z,8281
2022-08-28T10:56:56.000Z,7527
2022-08-28T10:58:12.000Z,7093
2022-08-28T10:59:28.000Z,7042
2022-08-28T11:00:44.000Z,7259
2022-08-28T11:02:01.000Z,7094
2022-08-28T11:03:17.000Z,7310
2022-08-28T11:05:48.000Z,7565
2022-08-28T11:07:05.000Z,9316
2022-08-28T11:08:21.000Z,7859
2022-08-28T11:09:37.000Z,7281
2022-08-28T11:10:53.000Z,1819
2022-08-28T11:12:09.000Z,8524
2022-08-28T11:13:26.000Z,7901
2022-08-28T11:14:42.000Z,7769
2022-08-28T11:15:58.000Z,7455
2022-08-28T11:17:14.000Z,7371
2022-08-28T11:18:31.000Z,7832
2022-08-28T11:19:47.000Z,4571
2022-08-28T11:21:02.000Z,6394
2022-08-28T11:22:18.000Z,8352
2022-08-28T11:23:35.000Z,2925
2022-08-28T11:24:51.000Z,7683
2022-08-28T11:26:07.000Z,1822
2022-08-28T11:27:23.000Z,5416
2022-08-28T11:28:40.000Z,7803
2022-08-28T11:31:12.000Z,7129
2022-08-28T11:32:28.000Z,8784
2022-08-28T11:33:44.000Z,5656
2022-08-28T11:35:01.000Z,2496
2022-08-28T11:36:17.000Z,6829
2022-08-28T11:37:32.000Z,7773
2022-08-28T11:38:48.000Z,7600
2022-08-28T11:40:05.000Z,7308
2022-08-28T11:41:21.000Z,6238
2022-08-28T11:42:37.000Z,6380
2022-08-28T11:43:53.000Z,6337
2022-08-28T11:45:10.000Z,7028
2022-08-28T11:46:26.000Z,5158
2022-08-28T11:47:42.000Z,6348
2022-08-28T11:48:58.000Z,5692
2022-08-28T11:50:15.000Z,5874
2022-08-28T11:51:31.000Z,6357
2022-08-28T11:52:47.000Z,6159
2022-08-28T11:55:18.000Z,8196
2022-08-28T11:56:35.000Z,7999
2022-08-28T11:57:51.000Z,6677
2022-08-28T11:59:07.000Z,5886
2022-08-28T12:00:23.000Z,5792
2022-08-28T12:01:40.000Z,5490
2022-08-28T12:02:56.000Z,5229
2022-08-28T12:04:12.000Z,4883
2022-08-28T12:05:28.000Z,5535
2022-08-28T12:06:45.000Z,1909
2022-08-28T12:08:01.000Z,5059
2022-08-28T12:09:17.000Z,4924
2022-08-28T12:10:32.000Z,4766
2022-08-28T12:11:49.000Z,5163
2022-08-28T12:13:05.000Z,5720
2022-08-28T12:14:21.000Z,5198
2022-08-28T12:15:37.000Z,5731
2022-08-28T12:16:53.000Z,6649
2022-08-28T12:18:10.000Z,7432
2022-08-28T12:19:26.000Z,7727
2022-08-28T12:21:58.000Z,2785
2022-08-28T12:23:15.000Z,7351
2022-08-28T12:24:31.000Z,7119
2022-08-28T12:25:47.000Z,7032
2022-08-28T12:27:02.000Z,6137
2022-08-28T12:28:19.000Z,5654
2022-08-28T12:29:35.000Z,5473
2022-08-28T12:30:51.000Z,5217
2022-08-28T12:32:07.000Z,5106
2022-08-28T12:33:23.000Z,5058
2022-08-28T12:34:40.000Z,4843
2022-08-28T12:35:56.000Z,6558
2022-08-28T12:37:12.000Z,4990
2022-08-28T12:38:28.000Z,3709
2022-08-28T12:39:45.000Z,3912
2022-08-28T12:41:01.000Z,2864
2022-08-28T12:42:17.000Z,7231
2022-08-28T12:43:32.000Z,5060
2022-08-28T12:44:49.000Z,5384
2022-08-28T12:47:21.000Z,6605
2022-08-28T12:48:37.000Z,6801
2022-08-28T12:49:54.000Z,6813
2022-08-28T12:51:10.000Z,6821
2022-08-28T12:52:26.000Z,6473
2022-08-28T12:53:42.000Z,5945
2022-08-28T12:54:58.000Z,5664
2022-08-28T12:56:15.000Z,5633
2022-08-28T12:57:31.000Z,5237
2022-08-28T12:58:47.000Z,5219
2022-08-28T13:00:02.000Z,5456
2022-08-28T13:01:19.000Z,7192
2022-08-28T13:02:35.000Z,5623
2022-08-28T13:03:51.000Z,4384
2022-08-28T13:05:07.000Z,3548
2022-08-28T13:06:24.000Z,3288
2022-08-28T13:07:40.000Z,6445
2022-08-28T13:08:56.000Z,4822
2022-08-28T13:10:12.000Z,4790
2022-08-28T13:12:45.000Z,4612
2022-08-28T13:14:01.000Z,4924
2022-08-28T13:15:17.000Z,4466
2022-08-28T13:16:32.000Z,4614
2022-08-28T13:17:49.000Z,4538
2022-08-28T13:19:05.000Z,1690
2022-08-28T13:21:37.000Z,5818
2022-08-28T13:22:54.000Z,6079
2022-08-28T13:24:10.000Z,5503
2022-08-28T13:26:42.000Z,6598
2022-08-28T13:27:58.000Z,5204
2022-08-28T13:29:13.000Z,3194
2022-08-28T13:30:29.000Z,2166
2022-08-28T13:31:45.000Z,5925
2022-08-28T13:33:02.000Z,4540
2022-08-28T13:34:18.000Z,5177
2022-08-28T13:35:34.000Z,4934
2022-08-28T13:38:06.000Z,4812
2022-08-28T13:39:23.000Z,4624
2022-08-28T13:40:39.000Z,4401
2022-08-28T13:41:55.000Z,4224
2022-08-28T13:43:11.000Z,4081
2022-08-28T13:44:28.000Z,4026
2022-08-28T13:45:43.000Z,3915
2022-08-28T13:46:59.000Z,3836
2022-08-28T13:48:15.000Z,3828
2022-08-28T13:50:48.000Z,3725
2022-08-28T13:53:19.000Z,3502
2022-08-28T13:54:35.000Z,3784
2022-08-28T13:55:50.000Z,3951
2022-08-28T13:57:06.000Z,4029
2022-08-28T13:58:22.000Z,5251
2022-08-28T13:59:39.000Z,2645
2022-08-28T14:00:55.000Z,3767
2022-08-28T14:02:11.000Z,4156
2022-08-28T14:03:27.000Z,3988
2022-08-28T14:04:43.000Z,3971
2022-08-28T14:06:00.000Z,3908
2022-08-28T14:07:16.000Z,3798
2022-08-28T14:08:31.000Z,3658
2022-08-28T14:09:46.000Z,3408
2022-08-28T14:11:03.000Z,3321
2022-08-28T14:12:19.000Z,3195
2022-08-28T14:13:35.000Z,3108
2022-08-28T14:14:51.000Z,3031
2022-08-28T14:16:08.000Z,2948
2022-08-28T14:17:24.000Z,2949
2022-08-28T14:19:56.000Z,2829
2022-08-28T14:21:13.000Z,2778
2022-08-28T14:22:29.000Z,2731
2022-08-28T14:23:45.000Z,2841
2022-08-28T14:25:01.000Z,2789
2022-08-28T14:26:16.000Z,2749
2022-08-28T14:28:49.000Z,2007
2022-08-28T14:30:04.000Z,654
2022-08-28T14:31:19.000Z,2683
2022-08-28T14:32:36.000Z,3245
2022-08-28T14:33:51.000Z,3200
2022-08-28T14:35:07.000Z,2920
2022-08-28T14:36:23.000Z,2932
2022-08-28T14:37:40.000Z,2855
2022-08-28T14:38:56.000Z,2745
2022-08-28T14:40:12.000Z,2702
2022-08-28T14:41:28.000Z,2699
2022-08-28T14:42:45.000Z,2566
2022-08-28T14:44:00.000Z,2458
2022-08-28T14:47:48.000Z,682
2022-08-28T14:49:04.000Z,2327
2022-08-28T14:50:20.000Z,2198
2022-08-28T14:51:36.000Z,2344
2022-08-28T14:52:52.000Z,2552
2022-08-28T14:54:09.000Z,2378
2022-08-28T14:55:25.000Z,2517
2022-08-28T14:56:41.000Z,2581
2022-08-28T14:57:57.000Z,2587
2022-08-28T14:59:14.000Z,2485
2022-08-28T15:00:29.000Z,2448
2022-08-28T15:01:44.000Z,2351
2022-08-28T15:03:00.000Z,2589
2022-08-28T15:04:17.000Z,1893
2022-08-28T15:08:05.000Z,1805
2022-08-28T15:10:38.000Z,2097
2022-08-28T15:11:54.000Z,1986
2022-08-28T15:13:10.000Z,2116
2022-08-28T15:14:26.000Z,1691
2022-08-28T15:15:43.000Z,1763
2022-08-28T15:16:59.000Z,1830
2022-08-28T15:18:14.000Z,1653
2022-08-28T15:19:29.000Z,1806
2022-08-28T15:20:46.000Z,1830
2022-08-28T15:22:02.000Z,1976
2022-08-28T15:23:18.000Z,2054
2022-08-28T15:24:34.000Z,2022
2022-08-28T15:25:51.000Z,2055
2022-08-28T15:27:07.000Z,2079
2022-08-28T15:28:23.000Z,2051
2022-08-28T15:29:39.000Z,2033
2022-08-28T15:30:56.000Z,1943
2022-08-28T15:32:11.000Z,1933
2022-08-28T15:33:26.000Z,1853
2022-08-28T15:34:42.000Z,1805
2022-08-28T15:35:59.000Z,1761
2022-08-28T15:37:15.000Z,1719
2022-08-28T15:38:31.000Z,1691
2022-08-28T15:41:03.000Z,1650
2022-08-28T15:42:20.000Z,1635
2022-08-28T15:44:52.000Z,1683
2022-08-28T15:46:08.000Z,1694
2022-08-28T15:47:25.000Z,1663
2022-08-28T15:48:40.000Z,1685
2022-08-28T15:51:12.000Z,1718
2022-08-28T15:52:28.000Z,1702
2022-08-28T15:53:44.000Z,1713
2022-08-28T15:55:00.000Z,1686
2022-08-28T15:57:33.000Z,1681
2022-08-28T15:58:49.000Z,1677
2022-08-28T16:00:05.000Z,1649
2022-08-28T16:01:21.000Z,1664
2022-08-28T16:03:54.000Z,1643
2022-08-28T16:05:10.000Z,1607
2022-08-28T16:06:25.000Z,1586
2022-08-28T16:07:40.000Z,1581
2022-08-28T16:11:29.000Z,1604
2022-08-28T16:12:45.000Z,1547
2022-08-28T16:14:02.000Z,1473
2022-08-28T16:15:18.000Z,1414
2022-08-28T16:16:34.000Z,1382
2022-08-28T16:17:50.000Z,1352
2022-08-28T16:19:07.000Z,1330
2022-08-28T16:20:23.000Z,1311
2022-08-28T16:22:55.000Z,1278
2022-08-28T16:24:10.000Z,1265
2022-08-28T16:25:27.000Z,1252
2022-08-28T16:26:43.000Z,1248
2022-08-28T16:27:59.000Z,1244
2022-08-28T16:29:15.000Z,1231
2022-08-28T16:30:32.000Z,1213
2022-08-28T16:31:48.000Z,1196
2022-08-28T16:33:04.000Z,1184
2022-08-28T16:35:37.000Z,1053
2022-08-28T16:36:53.000Z,952
2022-08-28T16:38:09.000Z,1000
2022-08-28T16:39:25.000Z,1059
2022-08-28T16:41:57.000Z,1104
2022-08-28T16:44:29.000Z,1087
2022-08-28T16:45:45.000Z,1072
2022-08-28T16:47:02.000Z,1049
2022-08-28T16:48:18.000Z,1036
2022-08-28T16:49:34.000Z,1031
2022-08-28T16:50:50.000Z,1030
2022-08-28T16:52:07.000Z,1030
2022-08-28T16:53:23.000Z,1025
2022-08-28T16:54:39.000Z,1023
2022-08-28T16:55:55.000Z,1018
2022-08-28T16:57:11.000Z,1013
2022-08-28T16:58:27.000Z,1012
2022-08-28T17:00:59.000Z,1012
2022-08-28T17:02:16.000Z,1030
2022-08-28T17:03:32.000Z,1062
2022-08-28T17:04:48.000Z,1096
2022-08-28T17:06:04.000Z,1129
2022-08-28T17:07:20.000Z,1149
2022-08-28T17:08:37.000Z,1140
2022-08-28T17:09:53.000Z,1142
2022-08-28T17:11:08.000Z,1143
2022-08-28T17:12:23.000Z,1159
2022-08-28T17:13:40.000Z,1141
2022-08-28T17:14:56.000Z,1113
2022-08-28T17:16:12.000Z,1145
2022-08-28T17:17:28.000Z,1040
2022-08-28T17:18:45.000Z,1135
2022-08-28T17:20:01.000Z,998
2022-08-28T17:21:17.000Z,945
2022-08-28T17:22:33.000Z,911
2022-08-28T17:23:50.000Z,883
2022-08-28T17:26:21.000Z,829
2022-08-28T17:27:36.000Z,801
2022-08-28T17:30:09.000Z,750
2022-08-28T17:31:24.000Z,732
2022-08-28T17:32:39.000Z,711
2022-08-28T17:33:55.000Z,687
2022-08-28T17:35:12.000Z,665
2022-08-28T17:36:28.000Z,651
2022-08-28T17:40:17.000Z,605
2022-08-28T17:41:33.000Z,589
2022-08-28T17:42:49.000Z,575
2022-08-28T17:44:05.000Z,559
2022-08-28T17:45:22.000Z,547
2022-08-28T17:46:38.000Z,534
2022-08-28T17:47:54.000Z,521
2022-08-28T17:49:10.000Z,509
2022-08-28T17:50:26.000Z,496
2022-08-28T17:51:42.000Z,483
2022-08-28T17:52:58.000Z,467
2022-08-28T17:54:14.000Z,449
2022-08-28T17:55:30.000Z,433
2022-08-28T17:56:47.000Z,410
2022-08-28T17:58:03.000Z,394
2022-08-28T18:00:35.000Z,368
2022-08-28T18:01:52.000Z,355
2022-08-28T18:04:24.000Z,323
2022-08-28T18:05:40.000Z,308
2022-08-28T18:06:56.000Z,296
2022-08-28T18:08:12.000Z,282
2022-08-28T18:09:28.000Z,263
2022-08-28T18:10:44.000Z,245
2022-08-28T18:12:00.000Z,226
2022-08-28T18:13:17.000Z,210
2022-08-28T18:14:33.000Z,193
2022-08-28T18:17:05.000Z,162
2022-08-28T18:18:22.000Z,149
2022-08-28T18:19:38.000Z,129
2022-08-28T18:22:10.000Z,105
2022-08-28T18:23:26.000Z,92
2022-08-28T18:24:42.000Z,83
2022-08-28T18:25:58.000Z,75
2022-08-28T18:27:14.000Z,64
2022-08-28T18:29:47.000Z,50
2022-08-28T18:31:03.000Z,45
2022-08-28T18:32:19.000Z,36
2022-08-28T18:33:35.000Z,32
2022-08-28T18:34:52.000Z,29
2022-08-28T18:36:08.000Z,25
2022-08-28T18:37:24.000Z,21
2022-08-28T18:38:40.000Z,17
2022-08-28T18:39:56.000Z,14
2022-08-28T18:41:12.000Z,13
2022-08-28T18:42:28.000Z,11
2022-08-28T18:43:44.000Z,8
2022-08-28T18:45:01.000Z,7
2022-08-28T18:46:17.000Z,5
2022-08-28T18:48:49.000Z,3
2022-08-28T18:50:05.000Z,2
2022-08-28T18:51:21.000Z,2
2022-08-28T18:52:37.000Z,1
2022-08-28T18:53:53.000Z,1
2022-08-28T18:55:09.000Z,1
2022-08-28T18:56:25.000Z,0
2022-08-28T18:57:40.000Z,0